Time,TemperatureF,DewpointF,PressureIn,WindDirection,WindDirectionDegrees,WindSpeedMPH,WindSpeedGustMPH,Humidity,HourlyPrecipIn,Conditions,Clouds,dailyrainin,SolarRadiationWatts/m^2,SoftwareType,DateUTC
2013-01-05 00:02:00,39.3,34.3,31.14,NE,52,0.0,0.0,82,0.00,,,0.00,0,Wunderground v.1.15,2013-01-05 08:02:00,
2013-01-05 00:08:00,39.2,34.2,31.14,NE,53,0.0,0.0,82,0.00,,,0.00,0,Wunderground v.1.15,2013-01-05 08:08:00,
2013-01-05 00:16:00,39.1,34.1,31.14,NE,52,0.0,0.0,82,0.00,,,0.00,0,Wunderground v.1.15,2013-01-05 08:16:00,
2013-01-05 00:22:00,38.9,33.9,31.14,NE,53,0.0,0.0,82,0.00,,,0.00,0,Wunderground v.1.15,2013-01-05 08:22:00,
2013-01-05 00:28:00,38.8,33.8,31.14,NE,53,0.0,0.0,82,0.00,,,0.00,0,Wunderground v.1.15,2013-01-05 08:28:00,
2013-01-05 00:34:00,38.5,33.5,31.14,NE,53,0.0,0.0,82,0.00,,,0.00,0,Wunderground v.1.15,2013-01-05 08:34:00,
2013-01-05 00:40:00,38.3,33.3,31.14,NE,53,0.0,0.0,82,0.00,,,0.00,0,Wunderground v.1.15,2013-01-05 08:40:00,
2013-01-05 00:46:00,38.2,33.5,31.14,NE,53,0.0,0.0,83,0.00,,,0.00,0,Wunderground v.1.15,2013-01-05 08:46:00,
2013-01-05 00:52:00,38.0,33.3,31.14,NE,53,0.0,0.0,83,0.00,,,0.00,0,Wunderground v.1.15,2013-01-05 08:52:00,
2013-01-05 00:58:00,37.9,32.9,31.14,NE,53,0.0,0.0,82,0.00,,,0.00,0,Wunderground v.1.15,2013-01-05 08:58:00,
2013-01-05 01:04:00,37.7,33.0,31.14,NE,52,0.0,0.0,83,0.00,,,0.00,0,Wunderground v.1.15,2013-01-05 09:04:00,
2013-01-05 01:10:00,37.6,32.9,31.13,NE,53,0.0,0.0,83,0.00,,,0.00,0,Wunderground v.1.15,2013-01-05 09:10:00,
2013-01-05 01:16:00,37.5,32.8,31.14,NE,53,0.0,0.0,83,0.00,,,0.00,0,Wunderground v.1.15,2013-01-05 09:16:00,
2013-01-05 01:22:00,37.5,32.8,31.14,NE,53,0.0,0.0,83,0.00,,,0.00,0,Wunderground v.1.15,2013-01-05 09:22:00,
2013-01-05 01:28:00,37.5,32.8,31.14,NE,52,0.0,0.0,83,0.00,,,0.00,0,Wunderground v.1.15,2013-01-05 09:28:00,
2013-01-05 01:34:00,37.5,32.8,31.14,NE,53,0.0,0.0,83,0.00,,,0.00,0,Wunderground v.1.15,2013-01-05 09:34:00,
2013-01-05 01:40:00,37.4,33.0,31.14,NE,52,0.0,0.0,84,0.00,,,0.00,0,Wunderground v.1.15,2013-01-05 09:40:00,
2013-01-05 01:46:00,37.3,32.9,31.14,NE,53,0.0,0.0,84,0.00,,,0.00,0,Wunderground v.1.15,2013-01-05 09:46:00,
2013-01-05 01:52:00,37.1,32.7,31.14,NE,53,0.0,0.0,84,0.00,,,0.00,0,Wunderground v.1.15,2013-01-05 09:52:00,
2013-01-05 01:58:00,37.0,32.6,31.14,NE,53,0.0,0.0,84,0.00,,,0.00,0,Wunderground v.1.15,2013-01-05 09:58:00,
2013-01-05 02:04:00,36.8,32.4,31.14,NE,53,0.0,0.0,84,0.00,,,0.00,0,Wunderground v.1.15,2013-01-05 10:04:00,
2013-01-05 02:10:00,36.8,32.4,31.14,NE,53,0.0,0.0,84,0.00,,,0.00,0,Wunderground v.1.15,2013-01-05 10:10:00,
2013-01-05 02:16:00,36.7,32.3,31.14,NE,53,0.0,0.0,84,0.00,,,0.00,0,Wunderground v.1.15,2013-01-05 10:16:00,
2013-01-05 02:22:00,36.6,32.2,31.14,NE,53,0.0,0.0,84,0.00,,,0.00,0,Wunderground v.1.15,2013-01-05 10:22:00,
2013-01-05 02:28:00,36.6,32.2,31.14,NE,53,0.0,0.0,84,0.00,,,0.00,0,Wunderground v.1.15,2013-01-05 10:28:00,
2013-01-05 02:36:00,36.6,32.2,31.15,NE,53,0.0,0.0,84,0.00,,,0.00,0,Wunderground v.1.15,2013-01-05 10:36:00,
2013-01-05 02:42:00,36.5,32.1,31.15,NE,53,0.0,0.0,84,0.00,,,0.00,0,Wunderground v.1.15,2013-01-05 10:42:00,
2013-01-05 02:48:00,36.6,32.5,31.15,NE,52,0.0,0.0,85,0.00,,,0.00,0,Wunderground v.1.15,2013-01-05 10:48:00,
2013-01-05 02:54:00,37.0,32.9,31.15,NE,53,0.0,0.0,85,0.00,,,0.00,0,Wunderground v.1.15,2013-01-05 10:54:00,
2013-01-05 03:00:00,37.0,32.9,31.15,NE,52,0.0,0.0,85,0.00,,,0.00,0,Wunderground v.1.15,2013-01-05 11:00:00,
2013-01-05 03:06:00,36.8,32.7,31.15,NE,52,0.0,0.0,85,0.00,,,0.00,0,Wunderground v.1.15,2013-01-05 11:06:00,
2013-01-05 03:12:00,36.7,32.6,31.16,NE,52,0.0,0.0,85,0.00,,,0.00,0,Wunderground v.1.15,2013-01-05 11:12:00,
2013-01-05 03:18:00,36.5,32.4,31.16,NE,52,0.0,0.0,85,0.00,,,0.00,0,Wunderground v.1.15,2013-01-05 11:18:00,
2013-01-05 03:24:00,36.4,32.3,31.16,NE,52,0.0,0.0,85,0.00,,,0.00,0,Wunderground v.1.15,2013-01-05 11:24:00,
2013-01-05 03:30:00,36.6,32.5,31.16,NE,53,0.0,0.0,85,0.00,,,0.00,0,Wunderground v.1.15,2013-01-05 11:30:00,
2013-01-05 03:36:00,36.8,33.0,31.16,NE,53,0.0,0.0,86,0.00,,,0.00,0,Wunderground v.1.15,2013-01-05 11:36:00,
2013-01-05 03:42:00,37.0,33.2,31.15,NE,52,0.0,0.0,86,0.00,,,0.00,0,Wunderground v.1.15,2013-01-05 11:42:00,
2013-01-05 03:48:00,37.1,33.3,31.16,NE,53,0.0,0.0,86,0.00,,,0.00,0,Wunderground v.1.15,2013-01-05 11:48:00,
2013-01-05 03:54:00,37.1,33.3,31.16,NE,53,0.0,0.0,86,0.00,,,0.00,0,Wunderground v.1.15,2013-01-05 11:54:00,
2013-01-05 04:00:00,37.0,33.2,31.16,NE,53,0.0,0.0,86,0.00,,,0.00,0,Wunderground v.1.15,2013-01-05 12:00:00,
2013-01-05 04:06:00,37.2,33.4,31.16,NE,53,0.0,0.0,86,0.00,,,0.00,0,Wunderground v.1.15,2013-01-05 12:06:00,
2013-01-05 04:12:00,37.2,33.4,31.16,NE,53,0.0,0.0,86,0.00,,,0.00,0,Wunderground v.1.15,2013-01-05 12:12:00,
2013-01-05 04:18:00,37.1,33.3,31.16,NE,52,0.0,0.0,86,0.00,,,0.00,0,Wunderground v.1.15,2013-01-05 12:18:00,
2013-01-05 04:24:00,37.2,33.7,31.16,NE,52,0.0,0.0,87,0.00,,,0.00,0,Wunderground v.1.15,2013-01-05 12:24:00,
2013-01-05 04:30:00,37.4,33.9,31.16,NE,52,0.0,0.0,87,0.00,,,0.00,0,Wunderground v.1.15,2013-01-05 12:30:00,
2013-01-05 04:36:00,37.7,34.2,31.16,NE,53,0.0,0.0,87,0.00,,,0.00,0,Wunderground v.1.15,2013-01-05 12:36:00,
2013-01-05 04:42:00,37.6,34.1,31.16,NE,53,0.0,0.0,87,0.00,,,0.00,0,Wunderground v.1.15,2013-01-05 12:42:00,
2013-01-05 04:48:00,37.4,33.9,31.16,NE,53,0.0,0.0,87,0.00,,,0.00,0,Wunderground v.1.15,2013-01-05 12:48:00,
2013-01-05 04:54:00,37.3,33.8,31.15,NE,53,0.0,0.0,87,0.00,,,0.00,0,Wunderground v.1.15,2013-01-05 12:54:00,
2013-01-05 05:00:00,37.3,33.8,31.16,NE,53,0.0,0.0,87,0.00,,,0.00,0,Wunderground v.1.15,2013-01-05 13:00:00,
2013-01-05 05:06:00,37.2,33.7,31.16,NE,52,0.0,0.0,87,0.00,,,0.00,0,Wunderground v.1.15,2013-01-05 13:06:00,
2013-01-05 05:12:00,37.1,33.6,31.16,NE,53,0.0,0.0,87,0.00,,,0.00,0,Wunderground v.1.15,2013-01-05 13:12:00,
2013-01-05 05:18:00,37.1,33.6,31.16,NE,53,0.0,0.0,87,0.00,,,0.00,0,Wunderground v.1.15,2013-01-05 13:18:00,
2013-01-05 05:24:00,37.2,33.7,31.16,NE,53,0.0,0.0,87,0.00,,,0.00,0,Wunderground v.1.15,2013-01-05 13:24:00,
2013-01-05 05:30:00,37.4,33.9,31.16,NE,53,0.0,0.0,87,0.00,,,0.00,0,Wunderground v.1.15,2013-01-05 13:30:00,
2013-01-05 05:36:00,37.5,34.0,31.16,NE,52,0.0,0.0,87,0.00,,,0.00,0,Wunderground v.1.15,2013-01-05 13:36:00,
2013-01-05 05:42:00,37.6,34.1,31.16,NE,52,0.0,0.0,87,0.00,,,0.00,0,Wunderground v.1.15,2013-01-05 13:42:00,
2013-01-05 05:48:00,37.6,34.1,31.15,NE,53,0.0,0.0,87,0.00,,,0.00,0,Wunderground v.1.15,2013-01-05 13:48:00,
2013-01-05 05:54:00,37.6,34.1,31.15,NE,53,0.0,0.0,87,0.00,,,0.00,0,Wunderground v.1.15,2013-01-05 13:54:00,
2013-01-05 06:00:00,37.7,34.2,31.16,NE,53,0.0,0.0,87,0.00,,,0.00,0,Wunderground v.1.15,2013-01-05 14:00:00,
2013-01-05 06:06:00,37.8,34.3,31.16,NE,53,0.0,0.0,87,0.00,,,0.00,0,Wunderground v.1.15,2013-01-05 14:06:00,
2013-01-05 06:12:00,37.9,34.7,31.16,NE,53,0.0,0.0,88,0.00,,,0.00,0,Wunderground v.1.15,2013-01-05 14:12:00,
2013-01-05 06:18:00,38.0,34.8,31.16,NE,52,0.0,0.0,88,0.00,,,0.00,0,Wunderground v.1.15,2013-01-05 14:18:00,
2013-01-05 06:26:00,38.0,34.8,31.16,NE,52,0.0,0.0,88,0.00,,,0.00,0,Wunderground v.1.15,2013-01-05 14:26:00,
2013-01-05 06:32:00,38.0,34.8,31.16,NE,53,0.0,0.0,88,0.00,,,0.00,0,Wunderground v.1.15,2013-01-05 14:32:00,
2013-01-05 06:38:00,38.0,34.8,31.16,NE,52,0.0,0.0,88,0.00,,,0.00,0,Wunderground v.1.15,2013-01-05 14:38:00,
2013-01-05 06:44:00,38.0,34.8,31.17,NE,53,0.0,0.0,88,0.00,,,0.00,0,Wunderground v.1.15,2013-01-05 14:44:00,
2013-01-05 06:50:00,38.1,34.9,31.17,NE,53,0.0,0.0,88,0.00,,,0.00,0,Wunderground v.1.15,2013-01-05 14:50:00,
2013-01-05 06:56:00,38.1,34.9,31.17,NE,52,0.0,0.0,88,0.00,,,0.00,0,Wunderground v.1.15,2013-01-05 14:56:00,
2013-01-05 07:02:00,38.2,35.0,31.17,NE,52,0.0,0.0,88,0.00,,,0.00,0,Wunderground v.1.15,2013-01-05 15:02:00,
2013-01-05 07:08:00,38.4,35.2,31.17,NE,53,0.0,0.0,88,0.00,,,0.00,0,Wunderground v.1.15,2013-01-05 15:08:00,
2013-01-05 07:14:00,38.5,35.3,31.17,NE,53,0.0,0.0,88,0.00,,,0.00,0,Wunderground v.1.15,2013-01-05 15:14:00,
2013-01-05 07:20:00,38.7,35.5,31.17,NE,53,0.0,0.0,88,0.00,,,0.00,0,Wunderground v.1.15,2013-01-05 15:20:00,
2013-01-05 07:26:00,38.8,35.6,31.18,NE,53,0.0,0.0,88,0.00,,,0.00,5,Wunderground v.1.15,2013-01-05 15:26:00,
2013-01-05 07:32:00,39.0,35.7,31.17,NE,53,0.0,0.0,88,0.00,,,0.00,9,Wunderground v.1.15,2013-01-05 15:32:00,
2013-01-05 07:38:00,39.1,35.8,31.18,NE,53,0.0,0.0,88,0.00,,,0.00,11,Wunderground v.1.15,2013-01-05 15:38:00,
2013-01-05 07:44:00,39.2,35.9,31.17,NE,52,0.0,0.0,88,0.00,,,0.00,11,Wunderground v.1.15,2013-01-05 15:44:00,
2013-01-05 07:50:00,39.5,36.2,31.18,NE,52,0.0,0.0,88,0.00,,,0.00,11,Wunderground v.1.15,2013-01-05 15:50:00,
2013-01-05 07:56:00,39.7,36.4,31.18,NE,52,0.0,0.0,88,0.00,,,0.00,12,Wunderground v.1.15,2013-01-05 15:56:00,
2013-01-05 08:02:00,39.9,36.9,31.18,NE,52,0.0,0.0,89,0.00,,,0.00,14,Wunderground v.1.15,2013-01-05 16:02:00,
2013-01-05 08:08:00,40.4,37.4,31.18,NE,53,0.0,1.0,89,0.00,,,0.00,21,Wunderground v.1.15,2013-01-05 16:08:00,
2013-01-05 08:14:00,41.0,38.0,31.18,NE,52,0.0,1.0,89,0.00,,,0.00,26,Wunderground v.1.15,2013-01-05 16:14:00,
2013-01-05 08:20:00,41.5,38.5,31.17,NE,52,0.0,0.0,89,0.00,,,0.00,32,Wunderground v.1.15,2013-01-05 16:20:00,
2013-01-05 08:26:00,42.2,39.2,31.18,NE,53,0.0,2.0,89,0.00,,,0.00,40,Wunderground v.1.15,2013-01-05 16:26:00,
2013-01-05 08:32:00,42.8,39.8,31.18,NE,52,1.0,1.0,89,0.00,,,0.00,44,Wunderground v.1.15,2013-01-05 16:32:00,
2013-01-05 08:38:00,43.2,40.2,31.18,NE,53,0.0,1.0,89,0.00,,,0.00,46,Wunderground v.1.15,2013-01-05 16:38:00,
2013-01-05 08:44:00,43.6,40.6,31.18,NE,53,0.0,0.0,89,0.00,,,0.00,65,Wunderground v.1.15,2013-01-05 16:44:00,
2013-01-05 08:50:00,43.8,40.8,31.18,NE,53,0.0,0.0,89,0.00,,,0.00,63,Wunderground v.1.15,2013-01-05 16:50:00,
2013-01-05 08:56:00,44.1,41.1,31.18,NE,53,0.0,0.0,89,0.00,,,0.00,74,Wunderground v.1.15,2013-01-05 16:56:00,
2013-01-05 09:02:00,44.3,41.3,31.18,NE,53,0.0,0.0,89,0.00,,,0.00,81,Wunderground v.1.15,2013-01-05 17:02:00,
2013-01-05 09:08:00,44.4,41.4,31.18,NE,53,0.0,0.0,89,0.00,,,0.00,84,Wunderground v.1.15,2013-01-05 17:08:00,
2013-01-05 09:14:00,44.7,41.7,31.18,NE,52,0.0,0.0,89,0.00,,,0.00,95,Wunderground v.1.15,2013-01-05 17:14:00,
2013-01-05 09:20:00,45.0,42.0,31.18,NE,52,0.0,0.0,89,0.00,,,0.00,91,Wunderground v.1.15,2013-01-05 17:20:00,
2013-01-05 09:26:00,45.1,42.1,31.18,NE,52,0.0,0.0,89,0.00,,,0.00,107,Wunderground v.1.15,2013-01-05 17:26:00,
2013-01-05 09:32:00,45.5,42.4,31.18,NE,52,0.0,0.0,89,0.00,,,0.00,118,Wunderground v.1.15,2013-01-05 17:32:00,
2013-01-05 09:38:00,45.8,42.7,31.18,NE,53,0.0,1.0,89,0.00,,,0.00,128,Wunderground v.1.15,2013-01-05 17:38:00,
2013-01-05 09:44:00,46.2,43.1,31.18,NE,53,0.0,0.0,89,0.00,,,0.00,116,Wunderground v.1.15,2013-01-05 17:44:00,
2013-01-05 09:50:00,46.6,43.5,31.18,NE,52,0.0,0.0,89,0.00,,,0.00,109,Wunderground v.1.15,2013-01-05 17:50:00,
2013-01-05 09:56:00,46.9,43.8,31.17,NE,53,0.0,0.0,89,0.00,,,0.00,127,Wunderground v.1.15,2013-01-05 17:56:00,
2013-01-05 10:02:00,47.3,44.2,31.18,NE,53,0.0,0.0,89,0.00,,,0.00,118,Wunderground v.1.15,2013-01-05 18:02:00,
2013-01-05 10:08:00,47.7,44.6,31.18,NE,53,0.0,0.0,89,0.00,,,0.00,151,Wunderground v.1.15,2013-01-05 18:08:00,
2013-01-05 10:16:00,48.2,45.1,31.18,NE,53,0.0,0.0,89,0.00,,,0.00,214,Wunderground v.1.15,2013-01-05 18:16:00,
2013-01-05 10:22:00,48.7,45.6,31.17,NE,52,0.0,0.0,89,0.00,,,0.00,211,Wunderground v.1.15,2013-01-05 18:22:00,
2013-01-05 10:28:00,49.2,46.1,31.17,NE,53,0.0,1.0,89,0.00,,,0.00,211,Wunderground v.1.15,2013-01-05 18:28:00,
2013-01-05 10:34:00,49.8,46.4,31.16,NE,53,1.0,2.0,88,0.00,,,0.00,225,Wunderground v.1.15,2013-01-05 18:34:00,
2013-01-05 10:40:00,50.4,47.0,31.15,ENE,63,2.0,2.0,88,0.00,,,0.00,202,Wunderground v.1.15,2013-01-05 18:40:00,
2013-01-05 10:46:00,50.9,46.9,31.12,SSE,167,2.0,5.0,86,0.00,,,0.00,171,Wunderground v.1.15,2013-01-05 18:46:00,
2013-01-05 10:52:00,51.3,46.9,31.12,SSE,150,3.0,3.0,85,0.00,,,0.00,172,Wunderground v.1.15,2013-01-05 18:52:00,
2013-01-05 10:58:00,51.5,46.5,31.10,SSE,148,4.0,4.0,83,0.00,,,0.00,172,Wunderground v.1.15,2013-01-05 18:58:00,
2013-01-05 11:04:00,51.8,46.2,31.10,South,173,5.0,5.0,81,0.00,,,0.00,174,Wunderground v.1.15,2013-01-05 19:04:00,
2013-01-05 11:10:00,52.1,46.1,31.11,SE,132,4.0,4.0,80,0.00,,,0.00,172,Wunderground v.1.15,2013-01-05 19:10:00,
2013-01-05 11:16:00,52.4,46.1,31.11,SE,140,3.0,5.0,79,0.00,,,0.00,204,Wunderground v.1.15,2013-01-05 19:16:00,
2013-01-05 11:22:00,52.7,46.0,31.12,SSE,155,2.0,2.0,78,0.00,,,0.00,185,Wunderground v.1.15,2013-01-05 19:22:00,
2013-01-05 11:28:00,53.0,46.0,31.13,SSE,155,1.0,3.0,77,0.00,,,0.00,214,Wunderground v.1.15,2013-01-05 19:28:00,
2013-01-05 11:34:00,53.3,46.3,31.12,SSE,155,1.0,3.0,77,0.00,,,0.00,230,Wunderground v.1.15,2013-01-05 19:34:00,
2013-01-05 11:40:00,53.7,46.3,31.12,SSE,155,2.0,2.0,76,0.00,,,0.00,255,Wunderground v.1.15,2013-01-05 19:40:00,
2013-01-05 11:46:00,54.1,46.3,31.11,SSE,155,2.0,2.0,75,0.00,,,0.00,288,Wunderground v.1.15,2013-01-05 19:46:00,
2013-01-05 11:52:00,54.6,46.5,31.11,SSE,155,2.0,2.0,74,0.00,,,0.00,269,Wunderground v.1.15,2013-01-05 19:52:00,
2013-01-05 11:58:00,54.9,46.0,31.11,SSE,162,2.0,4.0,72,0.00,,,0.00,287,Wunderground v.1.15,2013-01-05 19:58:00,
2013-01-05 12:04:00,55.4,46.2,31.10,SSE,161,2.0,2.0,71,0.00,,,0.00,309,Wunderground v.1.15,2013-01-05 20:04:00,
2013-01-05 12:10:00,55.8,46.2,31.10,SE,138,2.0,3.0,70,0.00,,,0.00,304,Wunderground v.1.15,2013-01-05 20:10:00,
2013-01-05 12:16:00,56.0,46.0,31.10,SSE,156,3.0,3.0,69,0.00,,,0.00,320,Wunderground v.1.15,2013-01-05 20:16:00,
2013-01-05 12:22:00,56.4,46.4,31.10,SSE,156,2.0,2.0,69,0.00,,,0.00,299,Wunderground v.1.15,2013-01-05 20:22:00,
2013-01-05 12:28:00,56.6,46.2,31.10,SSE,156,1.0,2.0,68,0.00,,,0.00,341,Wunderground v.1.15,2013-01-05 20:28:00,
2013-01-05 12:34:00,56.8,46.0,31.09,SSE,156,1.0,1.0,67,0.00,,,0.00,283,Wunderground v.1.15,2013-01-05 20:34:00,
2013-01-05 12:40:00,56.7,45.5,31.09,SSE,154,1.0,2.0,66,0.00,,,0.00,243,Wunderground v.1.15,2013-01-05 20:40:00,
2013-01-05 12:46:00,56.8,45.6,31.09,SSE,153,1.0,2.0,66,0.00,,,0.00,171,Wunderground v.1.15,2013-01-05 20:46:00,
2013-01-05 12:52:00,57.0,45.7,31.09,SSE,154,0.0,0.0,66,0.00,,,0.00,169,Wunderground v.1.15,2013-01-05 20:52:00,
2013-01-05 12:58:00,57.1,45.4,31.08,SSE,153,1.0,2.0,65,0.00,,,0.00,171,Wunderground v.1.15,2013-01-05 20:58:00,
2013-01-05 13:04:00,57.1,45.4,31.08,SSE,154,1.0,2.0,65,0.00,,,0.00,186,Wunderground v.1.15,2013-01-05 21:04:00,
2013-01-05 13:10:00,57.1,45.4,31.09,SSE,153,1.0,1.0,65,0.00,,,0.00,142,Wunderground v.1.15,2013-01-05 21:10:00,
2013-01-05 13:16:00,56.9,45.3,31.08,SSE,153,0.0,1.0,65,0.00,,,0.00,120,Wunderground v.1.15,2013-01-05 21:16:00,
2013-01-05 13:22:00,57.0,45.3,31.08,SSE,153,0.0,0.0,65,0.00,,,0.00,123,Wunderground v.1.15,2013-01-05 21:22:00,
2013-01-05 13:28:00,57.0,44.9,31.08,SSE,154,0.0,2.0,64,0.00,,,0.00,123,Wunderground v.1.15,2013-01-05 21:28:00,
2013-01-05 13:34:00,56.9,44.8,31.08,SSE,154,0.0,1.0,64,0.00,,,0.00,128,Wunderground v.1.15,2013-01-05 21:34:00,
2013-01-05 13:40:00,56.9,45.3,31.07,SSE,153,0.0,0.0,65,0.00,,,0.00,123,Wunderground v.1.15,2013-01-05 21:40:00,
2013-01-05 13:46:00,56.9,45.7,31.07,SSE,154,0.0,1.0,66,0.00,,,0.00,107,Wunderground v.1.15,2013-01-05 21:46:00,
2013-01-05 13:52:00,56.8,45.6,31.07,SSE,154,0.0,0.0,66,0.00,,,0.00,118,Wunderground v.1.15,2013-01-05 21:52:00,
2013-01-05 13:58:00,56.8,45.6,31.06,SSE,154,0.0,1.0,66,0.00,,,0.00,116,Wunderground v.1.15,2013-01-05 21:58:00,
2013-01-05 14:04:00,56.8,45.6,31.06,SSE,154,0.0,0.0,66,0.00,,,0.00,100,Wunderground v.1.15,2013-01-05 22:04:00,
2013-01-05 14:10:00,56.8,45.6,31.05,SSE,154,0.0,0.0,66,0.00,,,0.00,100,Wunderground v.1.15,2013-01-05 22:10:00,
2013-01-05 14:16:00,56.9,45.3,31.05,SSE,153,1.0,1.0,65,0.00,,,0.00,91,Wunderground v.1.15,2013-01-05 22:16:00,
2013-01-05 14:22:00,56.9,44.8,31.06,SSE,155,2.0,2.0,64,0.00,,,0.00,83,Wunderground v.1.15,2013-01-05 22:22:00,
2013-01-05 14:28:00,56.8,44.3,31.05,SSE,158,2.0,2.0,63,0.00,,,0.00,83,Wunderground v.1.15,2013-01-05 22:28:00,
2013-01-05 14:34:00,56.7,44.2,31.05,SSE,163,2.0,4.0,63,0.00,,,0.00,86,Wunderground v.1.15,2013-01-05 22:34:00,
2013-01-05 14:40:00,56.5,44.0,31.05,South,170,2.0,5.0,63,0.00,,,0.00,70,Wunderground v.1.15,2013-01-05 22:40:00,
2013-01-05 14:46:00,56.5,44.0,31.05,SSE,164,1.0,5.0,63,0.00,,,0.00,53,Wunderground v.1.15,2013-01-05 22:46:00,
2013-01-05 14:52:00,56.4,44.0,31.05,SSE,165,1.0,1.0,63,0.00,,,0.00,47,Wunderground v.1.15,2013-01-05 22:52:00,
2013-01-05 14:58:00,56.4,44.0,31.04,SSE,166,1.0,1.0,63,0.00,,,0.00,51,Wunderground v.1.15,2013-01-05 22:58:00,
2013-01-05 15:04:00,56.3,43.9,31.04,SSE,166,1.0,1.0,63,0.00,,,0.00,49,Wunderground v.1.15,2013-01-05 23:04:00,
2013-01-05 15:10:00,56.2,44.2,31.04,SSE,166,1.0,1.0,64,0.00,,,0.00,49,Wunderground v.1.15,2013-01-05 23:10:00,
2013-01-05 15:16:00,56.1,44.1,31.04,South,175,2.0,2.0,64,0.00,,,0.00,49,Wunderground v.1.15,2013-01-05 23:16:00,
2013-01-05 15:22:00,56.0,44.4,31.03,SSE,160,2.0,4.0,65,0.00,,,0.00,39,Wunderground v.1.15,2013-01-05 23:22:00,
2013-01-05 15:28:00,55.8,44.2,31.03,SSE,167,2.0,5.0,65,0.00,,,0.00,32,Wunderground v.1.15,2013-01-05 23:28:00,
2013-01-05 15:34:00,55.5,44.3,31.03,South,186,3.0,3.0,66,0.00,,,0.00,35,Wunderground v.1.15,2013-01-05 23:34:00,
2013-01-05 15:40:00,55.3,44.1,31.02,South,189,4.0,4.0,66,0.00,,,0.00,32,Wunderground v.1.15,2013-01-05 23:40:00,
2013-01-05 15:46:00,55.1,44.3,31.02,South,184,4.0,5.0,67,0.00,,,0.00,28,Wunderground v.1.15,2013-01-05 23:46:00,
2013-01-05 15:52:00,54.9,44.5,31.02,South,188,4.0,5.0,68,0.00,,,0.00,33,Wunderground v.1.15,2013-01-05 23:52:00,
2013-01-05 15:58:00,54.7,44.3,31.02,South,178,5.0,7.0,68,0.00,,,0.00,35,Wunderground v.1.15,2013-01-05 23:58:00,
2013-01-05 16:06:00,54.4,44.4,31.01,SSE,163,5.0,7.0,69,0.00,,,0.00,30,Wunderground v.1.15,2013-01-06 00:06:00,
2013-01-05 16:12:00,54.1,44.5,31.01,South,182,6.0,8.0,70,0.00,,,0.00,30,Wunderground v.1.15,2013-01-06 00:12:00,
2013-01-05 16:18:00,53.9,44.7,31.01,SSW,192,5.0,8.0,71,0.00,,,0.00,16,Wunderground v.1.15,2013-01-06 00:18:00,
2013-01-05 16:24:00,53.8,44.6,31.01,South,185,4.0,5.0,71,0.00,,,0.00,18,Wunderground v.1.15,2013-01-06 00:24:00,
2013-01-05 16:30:00,53.7,44.9,31.02,SSE,167,4.0,6.0,72,0.00,,,0.00,12,Wunderground v.1.15,2013-01-06 00:30:00,
2013-01-05 16:36:00,53.5,44.3,31.02,SSW,200,5.0,12.0,71,0.00,,,0.00,11,Wunderground v.1.15,2013-01-06 00:36:00,
2013-01-05 16:42:00,53.5,44.7,31.02,South,177,6.0,8.0,72,0.00,,,0.00,11,Wunderground v.1.15,2013-01-06 00:42:00,
2013-01-05 16:48:00,53.4,45.0,31.02,South,175,5.0,8.0,73,0.00,,,0.00,14,Wunderground v.1.15,2013-01-06 00:48:00,
2013-01-05 16:54:00,53.3,44.9,31.02,South,184,4.0,5.0,73,0.00,,,0.00,9,Wunderground v.1.15,2013-01-06 00:54:00,
2013-01-05 17:00:00,53.1,45.0,31.01,SE,145,3.0,5.0,74,0.00,,,0.00,7,Wunderground v.1.15,2013-01-06 01:00:00,
2013-01-05 17:06:00,53.0,44.9,31.01,South,171,3.0,5.0,74,0.00,,,0.00,0,Wunderground v.1.15,2013-01-06 01:06:00,
2013-01-05 17:12:00,52.9,45.2,31.01,SSE,163,2.0,2.0,75,0.00,,,0.00,0,Wunderground v.1.15,2013-01-06 01:12:00,
2013-01-05 17:18:00,52.8,45.1,31.01,SE,136,2.0,4.0,75,0.00,,,0.00,0,Wunderground v.1.15,2013-01-06 01:18:00,
2013-01-05 17:24:00,52.7,45.0,31.01,SE,136,2.0,4.0,75,0.00,,,0.00,0,Wunderground v.1.15,2013-01-06 01:24:00,
2013-01-05 17:30:00,52.7,45.0,31.01,SE,141,2.0,2.0,75,0.00,,,0.00,0,Wunderground v.1.15,2013-01-06 01:30:00,
2013-01-05 17:36:00,52.6,45.2,31.01,SE,133,1.0,3.0,76,0.00,,,0.00,0,Wunderground v.1.15,2013-01-06 01:36:00,
2013-01-05 17:42:00,52.6,45.2,31.01,SE,140,1.0,2.0,76,0.00,,,0.00,0,Wunderground v.1.15,2013-01-06 01:42:00,
2013-01-05 17:48:00,52.5,45.2,31.01,SE,142,1.0,4.0,76,0.00,,,0.00,0,Wunderground v.1.15,2013-01-06 01:48:00,
2013-01-05 17:54:00,52.4,45.4,31.02,SSE,148,2.0,3.0,77,0.00,,,0.00,0,Wunderground v.1.15,2013-01-06 01:54:00,
2013-01-05 18:00:00,52.4,45.4,31.01,SSE,155,2.0,3.0,77,0.00,,,0.00,0,Wunderground v.1.15,2013-01-06 02:00:00,
2013-01-05 18:06:00,52.3,45.6,31.01,SSE,156,2.0,3.0,78,0.00,,,0.00,0,Wunderground v.1.15,2013-01-06 02:06:00,
2013-01-05 18:12:00,52.2,45.5,31.01,SSE,158,2.0,2.0,78,0.00,,,0.00,0,Wunderground v.1.15,2013-01-06 02:12:00,
2013-01-05 18:18:00,52.1,45.8,31.01,South,171,2.0,4.0,79,0.00,,,0.00,0,Wunderground v.1.15,2013-01-06 02:18:00,
2013-01-05 18:24:00,52.0,45.7,31.01,South,184,3.0,6.0,79,0.00,,,0.00,0,Wunderground v.1.15,2013-01-06 02:24:00,
2013-01-05 18:30:00,51.9,45.6,31.00,South,184,3.0,3.0,79,0.00,,,0.00,0,Wunderground v.1.15,2013-01-06 02:30:00,
2013-01-05 18:36:00,51.8,45.8,31.00,South,175,2.0,3.0,80,0.00,,,0.00,0,Wunderground v.1.15,2013-01-06 02:36:00,
2013-01-05 18:42:00,51.8,45.8,31.00,South,180,3.0,6.0,80,0.00,,,0.00,0,Wunderground v.1.15,2013-01-06 02:42:00,
2013-01-05 18:48:00,51.8,45.8,31.00,South,180,2.0,6.0,80,0.00,,,0.00,0,Wunderground v.1.15,2013-01-06 02:48:00,
2013-01-05 18:54:00,51.7,46.1,31.01,South,182,2.0,4.0,81,0.00,,,0.00,0,Wunderground v.1.15,2013-01-06 02:54:00,
2013-01-05 19:00:00,51.7,46.1,31.00,South,182,2.0,2.0,81,0.00,,,0.00,0,Wunderground v.1.15,2013-01-06 03:00:00,
2013-01-05 19:06:00,51.6,46.3,31.00,SW,227,1.0,3.0,82,0.00,,,0.00,0,Wunderground v.1.15,2013-01-06 03:06:00,
2013-01-05 19:12:00,51.4,46.1,31.01,NW,316,2.0,2.0,82,0.00,,,0.01,0,Wunderground v.1.15,2013-01-06 03:12:00,
2013-01-05 19:18:00,51.2,46.2,31.00,NW,315,1.0,2.0,83,0.09,,,0.01,0,Wunderground v.1.15,2013-01-06 03:18:00,
2013-01-05 19:24:00,51.1,46.1,31.01,NW,315,0.0,1.0,83,0.09,,,0.02,0,Wunderground v.1.15,2013-01-06 03:24:00,
2013-01-05 19:30:00,50.9,45.9,31.01,NW,315,0.0,0.0,83,0.05,,,0.00,0,Wunderground v.1.15,2013-01-06 03:30:00,
2013-01-05 19:36:00,50.8,46.1,31.00,NW,316,0.0,1.0,84,0.00,,,0.00,0,Wunderground v.1.15,2013-01-06 03:36:00,
2013-01-05 19:42:00,50.7,46.0,31.01,NW,316,0.0,0.0,84,0.00,,,0.00,0,Wunderground v.1.15,2013-01-06 03:42:00,
2013-01-05 19:48:00,50.6,45.9,31.01,NW,316,0.0,0.0,84,0.00,,,0.00,0,Wunderground v.1.15,2013-01-06 03:48:00,
2013-01-05 19:54:00,50.5,45.8,31.01,NW,317,0.0,1.0,84,0.00,,,0.00,0,Wunderground v.1.15,2013-01-06 03:54:00,
2013-01-05 20:00:00,50.5,46.2,31.01,North,349,0.0,0.0,85,0.00,,,0.00,0,Wunderground v.1.15,2013-01-06 04:00:00,
2013-01-05 20:06:00,50.4,46.1,31.00,North,355,1.0,1.0,85,0.00,,,0.00,0,Wunderground v.1.15,2013-01-06 04:06:00,
2013-01-05 20:12:00,50.4,46.1,31.00,North,355,0.0,0.0,85,0.00,,,0.00,0,Wunderground v.1.15,2013-01-06 04:12:00,
2013-01-05 20:18:00,50.3,46.0,31.01,North,355,0.0,0.0,85,0.00,,,0.00,0,Wunderground v.1.15,2013-01-06 04:18:00,
2013-01-05 20:24:00,50.2,46.2,31.01,North,355,0.0,0.0,86,0.00,,,0.00,0,Wunderground v.1.15,2013-01-06 04:24:00,
2013-01-05 20:30:00,50.2,46.2,31.00,North,355,0.0,0.0,86,0.00,,,0.00,0,Wunderground v.1.15,2013-01-06 04:30:00,
2013-01-05 20:36:00,50.1,46.1,31.01,North,355,0.0,0.0,86,0.00,,,0.00,0,Wunderground v.1.15,2013-01-06 04:36:00,
2013-01-05 20:42:00,50.1,46.1,31.01,North,355,0.0,0.0,86,0.00,,,0.00,0,Wunderground v.1.15,2013-01-06 04:42:00,
2013-01-05 20:48:00,50.0,46.0,31.01,North,355,0.0,0.0,86,0.00,,,0.00,0,Wunderground v.1.15,2013-01-06 04:48:00,
2013-01-05 20:54:00,50.0,46.0,31.00,North,355,0.0,0.0,86,0.00,,,0.00,0,Wunderground v.1.15,2013-01-06 04:54:00,
2013-01-05 21:00:00,49.9,45.9,31.01,North,355,0.0,0.0,86,0.00,,,0.00,0,Wunderground v.1.15,2013-01-06 05:00:00,
2013-01-05 21:02:00,49.9,45.9,31.01,North,355,0.0,0.0,86,0.00,,,0.00,0,Wunderground v.1.15,2013-01-06 05:02:00,
2013-01-05 21:04:00,49.9,45.9,31.01,North,355,0.0,0.0,86,0.00,,,0.00,0,Wunderground v.1.15,2013-01-06 05:04:00,
2013-01-05 21:08:00,49.9,45.9,31.01,North,355,0.0,0.0,86,0.00,,,0.00,0,Wunderground v.1.15,2013-01-06 05:08:00,
2013-01-05 21:14:00,49.8,45.8,31.00,North,355,0.0,0.0,86,0.00,,,0.00,0,Wunderground v.1.15,2013-01-06 05:14:00,
2013-01-05 21:20:00,49.7,46.0,31.00,North,355,0.0,0.0,87,0.00,,,0.00,0,Wunderground v.1.15,2013-01-06 05:20:00,
2013-01-05 21:26:00,49.7,46.0,30.99,North,355,0.0,0.0,87,0.00,,,0.00,0,Wunderground v.1.15,2013-01-06 05:26:00,
2013-01-05 21:32:00,49.6,45.9,31.00,North,355,0.0,0.0,87,0.00,,,0.00,0,Wunderground v.1.15,2013-01-06 05:32:00,
2013-01-05 21:38:00,49.6,45.6,31.00,North,355,0.0,0.0,86,0.00,,,0.00,0,Wunderground v.1.15,2013-01-06 05:38:00,
2013-01-05 21:44:00,49.5,45.8,31.00,North,355,0.0,0.0,87,0.00,,,0.00,0,Wunderground v.1.15,2013-01-06 05:44:00,
2013-01-05 21:50:00,49.5,45.8,31.00,North,355,0.0,0.0,87,0.00,,,0.00,0,Wunderground v.1.15,2013-01-06 05:50:00,
2013-01-05 21:56:00,49.4,45.7,31.00,North,355,0.0,0.0,87,0.00,,,0.01,0,Wunderground v.1.15,2013-01-06 05:56:00,
2013-01-05 22:02:00,49.3,45.6,31.01,North,355,0.0,0.0,87,0.00,,,0.01,0,Wunderground v.1.15,2013-01-06 06:02:00,
2013-01-05 22:08:00,49.2,45.5,31.01,North,355,0.0,0.0,87,0.00,,,0.01,0,Wunderground v.1.15,2013-01-06 06:08:00,
2013-01-05 22:14:00,49.2,45.5,31.01,North,355,0.0,0.0,87,0.00,,,0.01,0,Wunderground v.1.15,2013-01-06 06:14:00,
2013-01-05 22:20:00,49.2,45.5,31.00,North,355,0.0,0.0,87,0.00,,,0.01,0,Wunderground v.1.15,2013-01-06 06:20:00,
2013-01-05 22:26:00,49.2,45.5,31.00,North,355,0.0,0.0,87,0.00,,,0.01,0,Wunderground v.1.15,2013-01-06 06:26:00,
2013-01-05 22:32:00,49.1,45.4,31.01,North,355,0.0,0.0,87,0.00,,,0.01,0,Wunderground v.1.15,2013-01-06 06:32:00,
2013-01-05 22:38:00,49.0,45.3,31.00,North,355,0.0,0.0,87,0.00,,,0.02,0,Wunderground v.1.15,2013-01-06 06:38:00,
2013-01-05 22:44:00,49.0,45.3,31.01,North,355,0.0,0.0,87,0.00,,,0.02,0,Wunderground v.1.15,2013-01-06 06:44:00,
2013-01-05 22:50:00,48.9,45.2,31.00,North,355,0.0,0.0,87,0.00,,,0.02,0,Wunderground v.1.15,2013-01-06 06:50:00,
2013-01-05 22:56:00,48.9,45.2,31.00,North,355,0.0,0.0,87,0.00,,,0.02,0,Wunderground v.1.15,2013-01-06 06:56:00,
2013-01-05 23:02:00,48.8,45.1,31.00,North,355,0.0,0.0,87,0.00,,,0.02,0,Wunderground v.1.15,2013-01-06 07:02:00,
2013-01-05 23:08:00,48.7,45.0,31.00,North,355,0.0,0.0,87,0.00,,,0.02,0,Wunderground v.1.15,2013-01-06 07:08:00,
2013-01-05 23:14:00,48.7,45.0,31.00,North,350,0.0,2.0,87,0.00,,,0.02,0,Wunderground v.1.15,2013-01-06 07:14:00,
2013-01-05 23:20:00,48.6,44.9,31.00,North,350,1.0,1.0,87,0.00,,,0.02,0,Wunderground v.1.15,2013-01-06 07:20:00,
2013-01-05 23:26:00,48.6,44.9,31.00,North,350,0.0,1.0,87,0.00,,,0.02,0,Wunderground v.1.15,2013-01-06 07:26:00,
2013-01-05 23:32:00,48.6,44.9,31.00,North,350,0.0,0.0,87,0.00,,,0.02,0,Wunderground v.1.15,2013-01-06 07:32:00,
2013-01-05 23:38:00,48.6,44.9,30.99,North,350,0.0,0.0,87,0.00,,,0.02,0,Wunderground v.1.15,2013-01-06 07:38:00,
2013-01-05 23:44:00,48.5,44.8,31.00,North,350,0.0,0.0,87,0.00,,,0.02,0,Wunderground v.1.15,2013-01-06 07:44:00,
2013-01-05 23:50:00,48.5,44.8,31.00,North,350,0.0,0.0,87,0.00,,,0.02,0,Wunderground v.1.15,2013-01-06 07:50:00,
2013-01-05 23:56:00,48.5,44.8,31.00,North,350,0.0,2.0,87,0.00,,,0.02,0,Wunderground v.1.15,2013-01-06 07:56:00,